Time;durP1;ratioP1;P1;durP2;ratioP2;P2;SDS_P1;SDS_P2;PMS_P1;PMS_P2;Temp;Humidity;BMP_temperature;BMP_pressure;BME280_temperature;BME280_humidity;BME280_pressure;Samples;Min_cycle;Max_cycle;Signal;HPM_P1;HPM_P2
2022/10/30 00:01:23;;;;;;;6.20;3.43;;;18.30;84.70;;;;;;5056609;28;20465;-68
2022/10/30 00:03:52;;;;;;;3.43;3.13;;;18.20;84.20;;;;;;5068970;28;20550;-69
2022/10/30 00:06:20;;;;;;;4.33;3.27;;;18.20;84.60;;;;;;5049823;28;20560;-69
2022/10/30 00:08:48;;;;;;;5.80;3.30;;;18.20;84.60;;;;;;5062374;28;20449;-69
2022/10/30 00:11:17;;;;;;;4.40;3.30;;;18.20;84.70;;;;;;5056198;28;20468;-69
2022/10/30 00:13:45;;;;;;;3.40;2.93;;;18.20;84.70;;;;;;5044879;28;20442;-69
2022/10/30 00:16:14;;;;;;;4.57;3.13;;;18.20;84.70;;;;;;5068349;28;20478;-69
2022/10/30 00:18:44;;;;;;;4.10;3.10;;;18.20;84.70;;;;;;5069668;28;20505;-69
2022/10/30 00:21:14;;;;;;;4.50;3.67;;;18.20;84.50;;;;;;5050018;28;20491;-68
2022/10/30 00:23:46;;;;;;;3.57;3.27;;;18.20;84.50;;;;;;5048069;28;20977;-69
2022/10/30 00:26:15;;;;;;;2.93;2.57;;;18.20;84.20;;;;;;5076223;28;20498;-69
2022/10/30 00:28:44;;;;;;;5.00;2.93;;;18.20;84.40;;;;;;5054447;28;20470;-69
2022/10/30 00:31:13;;;;;;;3.40;2.90;;;18.20;84.30;;;;;;5058459;28;20466;-69
2022/10/30 00:33:43;;;;;;;4.87;3.10;;;18.20;84.40;;;;;;5053015;28;20933;-70
2022/10/30 00:36:11;;;;;;;8.67;4.70;;;18.20;84.70;;;;;;5062756;28;20520;-68
2022/10/30 00:38:42;;;;;;;4.10;3.70;;;18.20;84.60;;;;;;5051984;28;20481;-70
2022/10/30 00:41:15;;;;;;;5.00;3.47;;;18.20;84.50;;;;;;5066263;28;20468;-69
2022/10/30 00:43:44;;;;;;;4.57;3.13;;;18.20;84.60;;;;;;5069696;28;21036;-69
2022/10/30 00:46:18;;;;;;;5.17;3.33;;;18.20;84.70;;;;;;5058185;28;20873;-69
2022/10/30 00:48:52;;;;;;;4.77;3.13;;;18.20;84.70;;;;;;5047028;28;20458;-69
2022/10/30 00:51:21;;;;;;;7.60;3.40;;;18.20;84.70;;;;;;5062689;28;20468;-69
2022/10/30 00:53:50;;;;;;;3.33;2.80;;;18.20;84.80;;;;;;5068619;28;20442;-68
2022/10/30 00:56:21;;;;;;;4.37;2.70;;;18.20;86.20;;;;;;5032802;28;20501;-69
2022/10/30 00:58:54;;;;;;;3.17;2.87;;;18.20;85.10;;;;;;5067116;28;20453;-69
2022/10/30 01:01:25;;;;;;;4.30;2.80;;;18.20;85.00;;;;;;5049358;28;20536;-70
2022/10/30 01:04:00;;;;;;;3.53;3.23;;;18.20;85.00;;;;;;5042533;28;20434;-69
2022/10/30 01:06:30;;;;;;;2.77;2.50;;;18.20;85.00;;;;;;5048594;28;20474;-70
2022/10/30 01:08:59;;;;;;;5.53;2.97;;;18.20;85.10;;;;;;5055918;28;20514;-69
2022/10/30 01:11:28;;;;;;;3.20;2.90;;;18.20;85.10;;;;;;5052416;28;20985;-69
2022/10/30 01:14:00;;;;;;;2.70;2.50;;;18.20;85.10;;;;;;5054183;28;20434;-69
2022/10/30 01:16:53;;;;;;;4.70;3.27;;;18.20;85.20;;;;;;5038371;28;21120;-68
2022/10/30 01:19:39;;;;;;;3.77;3.37;;;18.20;85.00;;;;;;5049751;28;20488;-69
2022/10/30 01:22:18;;;;;;;4.13;2.83;;;18.10;84.90;;;;;;5052771;28;20474;-69
2022/10/30 01:24:56;;;;;;;4.03;3.50;;;18.20;84.70;;;;;;5049947;28;20785;-69
2022/10/30 01:27:39;;;;;;;3.17;2.60;;;18.20;84.70;;;;;;5046874;28;20482;-69
2022/10/30 01:30:25;;;;;;;2.73;2.53;;;18.20;84.70;;;;;;5044919;28;20454;-70
2022/10/30 01:33:10;;;;;;;3.47;2.83;;;18.20;84.70;;;;;;5066245;28;20907;-69
2022/10/30 01:35:47;;;;;;;3.60;3.10;;;18.20;84.60;;;;;;5050254;28;20467;-69
2022/10/30 01:38:19;;;;;;;7.57;3.47;;;18.10;84.40;;;;;;5049983;28;20549;-69
2022/10/30 01:40:51;;;;;;;3.67;2.80;;;18.10;84.40;;;;;;5056206;28;20494;-69
2022/10/30 01:43:20;;;;;;;5.40;3.60;;;18.10;84.50;;;;;;5049315;28;20537;-68
2022/10/30 01:46:16;;;;;;;5.03;3.53;;;18.10;84.30;;;;;;5058733;28;20838;-69
2022/10/30 01:49:06;;;;;;;3.43;2.90;;;18.10;83.90;;;;;;5062941;28;20488;-69
2022/10/30 01:51:51;;;;;;;3.77;3.40;;;18.10;84.30;;;;;;5006871;28;20917;-68
2022/10/30 01:54:28;;;;;;;3.60;3.20;;;18.10;84.10;;;;;;5054264;28;20497;-69
2022/10/30 01:57:07;;;;;;;3.20;2.90;;;18.10;84.10;;;;;;5058449;28;20507;-69
2022/10/30 01:59:41;;;;;;;3.63;2.60;;;18.10;83.80;;;;;;5059388;28;20449;-69
2022/10/30 02:02:10;;;;;;;6.80;3.60;;;18.10;83.80;;;;;;5055577;28;20501;-69
2022/10/30 02:04:40;;;;;;;4.07;3.70;;;18.10;83.60;;;;;;5071339;28;20442;-69
2022/10/30 02:07:10;;;;;;;6.80;3.63;;;18.10;83.30;;;;;;5043772;28;20465;-69
2022/10/30 02:09:45;;;;;;;6.10;3.63;;;18.10;83.10;;;;;;5077386;28;20456;-68
2022/10/30 02:12:16;;;;;;;3.80;3.30;;;18.10;83.30;;;;;;5054626;28;21068;-69
2022/10/30 02:14:48;;;;;;;4.43;3.60;;;18.10;83.40;;;;;;5053731;28;20488;-69
2022/10/30 02:17:18;;;;;;;2.90;2.57;;;18.10;83.10;;;;;;5072282;28;20462;-70
2022/10/30 02:19:49;;;;;;;4.77;2.70;;;18.10;83.50;;;;;;5068395;28;20455;-68
2022/10/30 02:22:19;;;;;;;3.70;3.40;;;18.10;83.40;;;;;;5056199;28;20501;-69
2022/10/30 02:24:47;;;;;;;4.80;3.03;;;18.10;83.80;;;;;;5070093;28;20547;-69
2022/10/30 02:27:16;;;;;;;3.90;2.90;;;18.10;83.60;;;;;;5059858;28;20476;-69
2022/10/30 02:29:45;;;;;;;5.10;2.60;;;18.10;83.90;;;;;;5054631;28;20477;-69
2022/10/30 02:32:13;;;;;;;3.90;2.87;;;18.10;84.20;;;;;;5060745;28;20450;-70
2022/10/30 02:34:42;;;;;;;3.27;2.90;;;18.10;84.20;;;;;;5058293;28;20433;-70
2022/10/30 02:37:11;;;;;;;4.43;3.47;;;18.10;83.90;;;;;;5056933;28;20465;-69
2022/10/30 02:39:41;;;;;;;3.63;2.83;;;18.10;83.90;;;;;;5061498;28;20460;-69
2022/10/30 02:42:10;;;;;;;2.53;2.30;;;18.10;83.80;;;;;;5050647;28;20478;-70
2022/10/30 02:44:39;;;;;;;4.50;2.90;;;18.10;84.10;;;;;;5071280;28;20468;-68
2022/10/30 02:47:07;;;;;;;3.53;3.23;;;18.10;84.40;;;;;;5057443;28;20465;-69
2022/10/30 02:49:36;;;;;;;3.40;2.97;;;18.10;84.10;;;;;;5078582;28;20449;-69
2022/10/30 02:52:07;;;;;;;4.00;2.67;;;18.10;84.10;;;;;;5075299;28;21004;-69
2022/10/30 02:54:36;;;;;;;5.97;3.17;;;18.10;84.30;;;;;;5046495;28;20451;-69
2022/10/30 02:57:06;;;;;;;5.60;3.60;;;18.10;84.00;;;;;;5048495;28;20822;-68
2022/10/30 02:59:34;;;;;;;3.33;3.03;;;18.10;83.80;;;;;;5050415;28;20450;-68
2022/10/30 03:02:03;;;;;;;3.70;3.37;;;18.10;84.20;;;;;;5049986;28;20564;-69
2022/10/30 03:04:32;;;;;;;3.90;3.40;;;18.10;84.10;;;;;;5070462;28;20461;-69
2022/10/30 03:07:00;;;;;;;5.33;3.03;;;18.10;84.20;;;;;;5057549;28;20473;-69
2022/10/30 03:09:28;;;;;;;6.63;3.00;;;18.10;84.30;;;;;;5058128;28;20797;-68
2022/10/30 03:11:57;;;;;;;3.53;3.13;;;18.00;83.70;;;;;;5063038;28;20465;-69
2022/10/30 03:14:27;;;;;;;3.37;2.93;;;18.10;83.90;;;;;;5058915;28;20495;-69
2022/10/30 03:16:55;;;;;;;4.83;3.00;;;18.00;83.90;;;;;;5061560;28;20636;-69
2022/10/30 03:19:23;;;;;;;3.23;2.73;;;18.00;84.00;;;;;;5070502;28;20852;-69
2022/10/30 03:21:54;;;;;;;4.00;3.13;;;18.00;83.90;;;;;;5052128;28;20481;-69
2022/10/30 03:24:22;;;;;;;4.87;2.60;;;18.00;84.20;;;;;;5075599;28;20782;-69
2022/10/30 03:26:51;;;;;;;4.03;2.57;;;18.00;84.20;;;;;;5064067;28;21018;-68
2022/10/30 03:29:19;;;;;;;3.13;2.80;;;18.00;84.30;;;;;;5050194;28;20462;-69
2022/10/30 03:31:49;;;;;;;3.03;2.73;;;18.00;84.20;;;;;;5054529;28;20677;-69
2022/10/30 03:34:21;;;;;;;3.90;3.37;;;18.00;84.20;;;;;;5049022;28;21005;-69
2022/10/30 03:36:49;;;;;;;5.23;3.80;;;18.00;84.30;;;;;;5073961;28;20985;-69
2022/10/30 03:39:18;;;;;;;4.47;2.47;;;18.00;84.10;;;;;;5053470;28;20867;-69
2022/10/30 03:41:46;;;;;;;8.20;2.87;;;18.00;84.10;;;;;;5045671;28;20478;-69
2022/10/30 03:44:15;;;;;;;3.50;2.83;;;18.00;84.20;;;;;;5048361;28;20461;-69
2022/10/30 03:46:44;;;;;;;3.50;3.20;;;18.00;84.10;;;;;;5062458;28;20469;-70
2022/10/30 03:49:28;;;;;;;4.10;3.10;;;18.00;84.10;;;;;;5049719;28;20486;-69
2022/10/30 03:51:58;;;;;;;3.67;2.83;;;18.00;84.10;;;;;;5067984;28;20481;-69
2022/10/30 03:54:27;;;;;;;5.07;3.20;;;18.00;84.10;;;;;;5067874;28;20431;-68
2022/10/30 03:56:58;;;;;;;3.50;2.87;;;18.00;84.40;;;;;;5067031;28;20470;-69
2022/10/30 03:59:29;;;;;;;3.77;3.20;;;18.00;84.50;;;;;;5051649;28;20466;-68
2022/10/30 04:02:18;;;;;;;3.60;3.00;;;18.00;84.40;;;;;;5065440;28;21011;-69
2022/10/30 04:04:48;;;;;;;3.53;3.13;;;18.00;84.20;;;;;;5052084;28;20473;-69
2022/10/30 04:07:16;;;;;;;3.13;2.83;;;18.00;84.50;;;;;;5050066;28;20977;-69
2022/10/30 04:09:45;;;;;;;4.07;2.70;;;18.00;84.40;;;;;;5059051;28;20453;-69
2022/10/30 04:12:13;;;;;;;3.80;2.80;;;17.90;85.20;;;;;;5046636;28;20465;-69
2022/10/30 04:14:42;;;;;;;3.77;2.67;;;18.00;84.10;;;;;;5050437;28;20488;-69
2022/10/30 04:17:11;;;;;;;4.60;2.73;;;17.90;84.00;;;;;;5073545;28;20461;-69
2022/10/30 04:19:40;;;;;;;5.83;3.27;;;17.90;84.20;;;;;;5054119;28;20549;-69
2022/10/30 04:22:09;;;;;;;3.63;2.03;;;17.90;84.30;;;;;;5056623;28;20462;-69
2022/10/30 04:24:38;;;;;;;4.03;3.10;;;17.90;84.20;;;;;;5058720;28;20441;-70
2022/10/30 04:27:07;;;;;;;2.90;2.53;;;17.90;84.40;;;;;;5056936;28;20497;-70
2022/10/30 04:29:36;;;;;;;4.60;3.17;;;17.90;84.50;;;;;;5058331;28;20484;-67
2022/10/30 04:32:05;;;;;;;2.80;2.60;;;17.90;84.30;;;;;;5054535;28;20465;-68
2022/10/30 04:34:34;;;;;;;3.03;2.37;;;17.90;84.30;;;;;;5071476;28;20901;-69
2022/10/30 04:37:04;;;;;;;3.40;2.97;;;17.90;84.40;;;;;;5069235;28;20459;-69
2022/10/30 04:39:34;;;;;;;3.30;3.00;;;17.90;84.40;;;;;;5055776;28;20450;-68
2022/10/30 04:42:12;;;;;;;2.77;2.50;;;17.90;84.20;;;;;;5040748;28;20478;-69
2022/10/30 04:44:42;;;;;;;5.03;3.20;;;17.90;84.40;;;;;;5051336;28;20864;-69
2022/10/30 04:47:11;;;;;;;3.73;2.97;;;17.90;84.50;;;;;;5053436;28;20512;-69
2022/10/30 04:49:40;;;;;;;6.30;3.17;;;17.90;84.30;;;;;;5057844;28;20453;-70
2022/10/30 04:52:09;;;;;;;7.23;3.63;;;17.90;84.30;;;;;;5064812;28;20474;-69
2022/10/30 04:54:39;;;;;;;4.60;2.73;;;17.90;84.00;;;;;;5072470;28;20442;-69
2022/10/30 04:57:07;;;;;;;4.17;2.50;;;17.90;83.80;;;;;;5096161;22;20491;-70
2022/10/30 04:59:36;;;;;;;2.83;2.50;;;17.90;84.20;;;;;;5093704;28;20966;-70
2022/10/30 05:02:05;;;;;;;3.07;2.50;;;17.90;84.40;;;;;;5081191;28;20499;-70
2022/10/30 05:04:33;;;;;;;7.87;3.23;;;17.90;84.40;;;;;;5099667;28;20433;-69
2022/10/30 05:07:02;;;;;;;4.40;3.20;;;17.90;84.30;;;;;;5101488;28;20470;-70
2022/10/30 05:09:31;;;;;;;2.50;2.30;;;17.90;84.10;;;;;;5093706;28;20494;-70
2022/10/30 05:12:00;;;;;;;2.97;2.67;;;17.80;84.20;;;;;;5077127;28;20477;-67
2022/10/30 05:14:34;;;;;;;4.23;2.87;;;17.90;84.40;;;;;;5098981;28;20520;-70
2022/10/30 05:17:03;;;;;;;2.83;2.60;;;17.80;84.30;;;;;;5107346;28;20468;-69
2022/10/30 05:19:33;;;;;;;3.90;3.00;;;17.80;84.30;;;;;;5098303;28;20452;-68
2022/10/30 05:22:01;;;;;;;2.63;2.43;;;17.90;84.50;;;;;;5079255;28;20468;-70
2022/10/30 05:24:30;;;;;;;2.63;2.23;;;17.80;84.50;;;;;;5090062;28;20432;-69
2022/10/30 05:27:00;;;;;;;3.17;2.73;;;17.80;84.60;;;;;;5098668;28;20467;-69
2022/10/30 05:29:30;;;;;;;2.87;2.57;;;17.80;84.50;;;;;;5096310;28;20472;-69
2022/10/30 05:31:59;;;;;;;3.67;2.60;;;17.80;84.20;;;;;;5083921;28;20549;-69
2022/10/30 05:34:43;;;;;;;6.30;2.77;;;17.80;84.00;;;;;;5068355;28;20442;-69
2022/10/30 05:37:12;;;;;;;4.37;2.90;;;17.80;84.20;;;;;;5104181;28;20970;-69
2022/10/30 05:39:42;;;;;;;3.73;2.77;;;17.80;84.20;;;;;;5083640;28;20469;-69
2022/10/30 05:42:24;;;;;;;3.20;2.87;;;17.80;84.10;;;;;;5092034;28;20467;-69
2022/10/30 05:44:53;;;;;;;5.00;2.37;;;17.80;84.40;;;;;;5087316;28;20437;-69
2022/10/30 05:47:29;;;;;;;3.03;2.73;;;17.80;84.50;;;;;;5103622;28;20474;-69
2022/10/30 05:49:58;;;;;;;4.90;2.03;;;17.80;84.40;;;;;;5088678;28;20475;-69
2022/10/30 05:52:28;;;;;;;3.10;2.80;;;17.80;83.80;;;;;;5090741;28;20475;-69
2022/10/30 05:54:58;;;;;;;4.20;3.33;;;17.80;84.20;;;;;;5085514;28;20530;-69
2022/10/30 05:57:44;;;;;;;3.37;2.03;;;17.80;84.30;;;;;;5085014;28;20570;-69
2022/10/30 06:00:14;;;;;;;2.53;2.33;;;17.80;84.30;;;;;;5088705;28;20528;-69
2022/10/30 06:02:42;;;;;;;4.87;2.50;;;17.80;84.20;;;;;;5106778;28;20939;-69
2022/10/30 06:05:13;;;;;;;2.97;2.50;;;17.80;84.30;;;;;;5101000;28;20530;-69
2022/10/30 06:07:42;;;;;;;3.27;2.50;;;17.80;84.40;;;;;;5082588;28;20432;-69
2022/10/30 06:10:11;;;;;;;2.27;2.00;;;17.80;84.50;;;;;;5087402;28;20955;-69
2022/10/30 06:13:07;;;;;;;2.90;2.63;;;17.80;84.40;;;;;;5093468;28;20552;-69
2022/10/30 06:16:08;;;;;;;2.97;2.37;;;17.80;84.40;;;;;;5076947;28;20467;-69
2022/10/30 06:18:55;;;;;;;2.77;2.03;;;17.80;84.70;;;;;;5096947;28;20480;-69
2022/10/30 06:21:24;;;;;;;2.90;2.50;;;17.70;84.60;;;;;;5095317;28;20521;-69
2022/10/30 06:24:21;;;;;;;2.20;2.00;;;17.80;84.70;;;;;;5092350;28;20447;-69
2022/10/30 06:27:03;;;;;;;2.70;2.50;;;17.80;84.70;;;;;;5086443;28;20448;-69
2022/10/30 06:29:33;;;;;;;2.70;2.20;;;17.80;84.70;;;;;;5105156;27;20472;-69
2022/10/30 06:32:01;;;;;;;2.77;2.47;;;17.70;84.60;;;;;;5087820;28;20491;-69
2022/10/30 06:34:34;;;;;;;2.80;2.60;;;17.70;84.30;;;;;;5089064;28;20626;-69
2022/10/30 06:37:02;;;;;;;4.20;2.73;;;17.70;84.50;;;;;;5103910;27;20485;-69
2022/10/30 06:39:31;;;;;;;2.50;2.30;;;17.70;84.60;;;;;;5105798;27;20828;-69
2022/10/30 06:42:19;;;;;;;2.80;2.53;;;17.70;84.30;;;;;;5089663;27;20531;-69
2022/10/30 06:44:59;;;;;;;6.20;2.80;;;17.70;84.10;;;;;;5112266;27;20930;-69
2022/10/30 06:47:28;;;;;;;2.93;2.27;;;17.70;84.40;;;;;;5093441;27;20490;-69
2022/10/30 06:49:56;;;;;;;4.70;3.07;;;17.70;84.40;;;;;;5119856;27;20496;-69
2022/10/30 06:52:25;;;;;;;3.20;2.70;;;17.70;84.20;;;;;;5084667;28;20503;-69
2022/10/30 06:54:55;;;;;;;3.50;2.80;;;17.70;84.20;;;;;;5089446;28;20437;-69
2022/10/30 06:57:56;;;;;;;2.43;2.23;;;17.70;84.30;;;;;;5063139;27;20559;-69
2022/10/30 07:00:40;;;;;;;2.70;2.50;;;17.70;84.20;;;;;;5084149;28;20927;-69
2022/10/30 07:03:35;;;;;;;4.00;3.30;;;17.70;84.30;;;;;;5115866;27;20448;-69
2022/10/30 07:06:05;;;;;;;2.83;2.43;;;17.70;84.30;;;;;;5106596;27;20472;-69
2022/10/30 07:08:34;;;;;;;3.87;3.03;;;17.70;84.40;;;;;;5090406;28;20484;-69
2022/10/30 07:11:02;;;;;;;3.77;2.70;;;17.70;84.30;;;;;;5088884;28;20444;-69
2022/10/30 07:13:42;;;;;;;2.70;2.50;;;17.60;84.20;;;;;;5098911;28;20440;-69
2022/10/30 07:16:27;;;;;;;5.10;2.30;;;17.60;84.20;;;;;;5101736;27;20464;-69
2022/10/30 07:18:56;;;;;;;2.63;2.30;;;17.60;84.20;;;;;;5092312;28;20459;-69
2022/10/30 07:21:32;;;;;;;2.47;2.27;;;17.60;84.20;;;;;;5088993;27;20978;-69
2022/10/30 07:24:04;;;;;;;4.13;2.60;;;17.60;84.30;;;;;;5085724;27;20468;-69
2022/10/30 07:26:36;;;;;;;4.37;2.83;;;17.60;83.90;;;;;;5083914;28;20479;-69
2022/10/30 07:29:43;;;;;;;2.50;2.30;;;17.60;83.70;;;;;;5083523;27;20473;-69
2022/10/30 07:32:35;;;;;;;2.67;2.47;;;17.60;83.80;;;;;;5087203;28;20544;-69
2022/10/30 07:35:36;;;;;;;3.60;3.30;;;17.60;83.90;;;;;;5080755;28;20433;-69
2022/10/30 07:38:17;;;;;;;3.63;2.80;;;17.60;84.20;;;;;;5084924;28;20492;-69
2022/10/30 07:40:55;;;;;;;3.23;2.93;;;17.60;84.20;;;;;;5096908;28;20451;-69
2022/10/30 07:43:43;;;;;;;3.53;3.20;;;17.60;84.20;;;;;;5101227;27;20436;-69
2022/10/30 07:46:44;;;;;;;2.00;1.80;;;17.60;84.20;;;;;;5040533;28;20471;-69
2022/10/30 07:49:26;;;;;;;2.77;2.50;;;17.60;84.30;;;;;;5107464;27;20974;-69
2022/10/30 07:51:59;;;;;;;3.00;2.70;;;17.60;84.20;;;;;;5077532;28;20480;-69
2022/10/30 07:54:27;;;;;;;3.10;2.23;;;17.60;84.30;;;;;;5089930;28;20837;-69
2022/10/30 07:56:59;;;;;;;1.90;1.70;;;17.60;84.40;;;;;;5087589;27;20455;-69
2022/10/30 07:59:36;;;;;;;3.50;2.83;;;17.60;84.40;;;;;;5113407;27;20451;-69
2022/10/30 08:02:23;;;;;;;2.50;2.30;;;17.60;84.30;;;;;;5121549;27;20460;-69
2022/10/30 08:05:13;;;;;;;2.80;2.30;;;17.60;84.50;;;;;;5046222;28;20497;-69
2022/10/30 08:08:00;;;;;;;2.60;2.40;;;17.60;84.50;;;;;;5084482;28;21250;-69
2022/10/30 08:10:29;;;;;;;2.37;2.00;;;17.60;84.60;;;;;;5091924;28;20453;-69
2022/10/30 08:12:57;;;;;;;2.23;2.03;;;17.60;84.60;;;;;;5109124;27;20442;-69
2022/10/30 08:15:26;;;;;;;2.90;2.40;;;17.60;84.70;;;;;;5105992;27;20489;-69
2022/10/30 08:17:55;;;;;;;4.40;2.50;;;17.60;84.70;;;;;;5090765;28;20432;-69
2022/10/30 08:20:26;;;;;;;2.97;2.67;;;17.60;84.70;;;;;;5090846;28;20473;-69
2022/10/30 08:22:55;;;;;;;2.47;2.23;;;17.60;84.70;;;;;;5100180;27;20501;-69
2022/10/30 08:25:27;;;;;;;4.57;3.03;;;17.60;84.70;;;;;;5116975;27;20969;-69
2022/10/30 08:27:58;;;;;;;3.30;2.40;;;17.60;84.70;;;;;;5105697;27;20439;-69
2022/10/30 08:30:33;;;;;;;2.70;2.47;;;17.60;84.70;;;;;;5102280;28;20473;-69
2022/10/30 08:33:03;;;;;;;3.17;2.20;;;17.60;84.70;;;;;;5090298;28;20429;-69
2022/10/30 08:36:11;;;;;;;3.13;2.83;;;17.60;84.70;;;;;;5036816;28;20447;-69
2022/10/30 08:38:40;;;;;;;6.40;4.33;;;17.60;84.70;;;;;;5024333;28;20459;-69
2022/10/30 08:41:39;;;;;;;6.00;3.77;;;17.60;85.80;;;;;;5048614;28;21171;-69
2022/10/30 08:44:08;;;;;;;4.50;3.40;;;17.60;85.50;;;;;;5083560;28;20861;-69
2022/10/30 08:47:08;;;;;;;4.60;3.47;;;17.60;85.30;;;;;;5059305;28;20471;-69
2022/10/30 08:49:38;;;;;;;3.77;3.43;;;17.60;85.40;;;;;;5097347;28;20464;-69
2022/10/30 08:52:10;;;;;;;3.47;3.17;;;17.60;85.40;;;;;;5111401;27;20886;-69
2022/10/30 08:54:39;;;;;;;4.13;3.37;;;17.60;85.40;;;;;;5101972;28;20432;-69
2022/10/30 08:57:09;;;;;;;3.10;2.80;;;17.60;85.30;;;;;;5096357;28;20997;-69
2022/10/30 08:59:40;;;;;;;5.17;3.10;;;17.60;85.40;;;;;;5106073;28;20998;-69
2022/10/30 09:02:15;;;;;;;4.90;2.97;;;17.60;85.40;;;;;;5097951;28;20468;-69
2022/10/30 09:05:19;;;;;;;3.20;2.93;;;17.60;85.50;;;;;;5099881;27;21059;-69
2022/10/30 09:09:02;;;;;;;5.13;3.70;;;17.60;85.50;;;;;;5104529;28;20448;-69
2022/10/30 09:12:01;;;;;;;4.27;2.87;;;17.60;85.30;;;;;;5086018;28;20452;-69
2022/10/30 09:14:35;;;;;;;5.03;3.00;;;17.70;85.50;;;;;;5089277;28;20460;-69
2022/10/30 09:17:04;;;;;;;6.37;2.40;;;17.70;85.60;;;;;;5090749;28;20464;-69
2022/10/30 09:19:35;;;;;;;3.97;2.80;;;17.70;85.50;;;;;;5100844;28;20450;-69
2022/10/30 09:22:56;;;;;;;5.03;3.70;;;17.70;85.40;;;;;;5094773;28;20560;-69
2022/10/30 09:25:26;;;;;;;4.20;2.97;;;17.70;85.30;;;;;;5084077;28;20424;-69
2022/10/30 09:28:16;;;;;;;3.13;2.10;;;17.70;86.70;;;;;;5109020;28;20467;-69
2022/10/30 09:31:14;;;;;;;4.67;3.23;;;17.70;85.40;;;;;;5102180;28;20484;-69
2022/10/30 09:33:42;;;;;;;4.70;3.20;;;17.70;85.40;;;;;;5090320;28;20429;-69
2022/10/30 09:36:47;;;;;;;3.40;3.00;;;17.70;85.50;;;;;;5086933;28;21084;-69
2022/10/30 09:39:17;;;;;;;4.67;3.33;;;17.70;85.70;;;;;;5106283;28;20459;-69
2022/10/30 09:50:25;;;;;;;3.97;3.10;;;17.70;85.30;;;;;;5112583;28;20448;-69
2022/10/30 09:53:07;;;;;;;7.57;3.33;;;17.70;85.30;;;;;;5091065;28;20460;-69
2022/10/30 09:55:44;;;;;;;4.03;3.73;;;17.70;85.30;;;;;;5086274;28;20480;-69
2022/10/30 09:58:22;;;;;;;3.80;2.67;;;17.70;85.40;;;;;;5087415;28;20475;-69
2022/10/30 10:01:02;;;;;;;3.50;2.80;;;17.70;85.40;;;;;;5101135;27;20538;-69
2022/10/30 10:03:52;;;;;;;3.53;2.73;;;17.70;85.40;;;;;;5098327;28;20433;-69
2022/10/30 10:06:47;;;;;;;5.07;3.03;;;17.70;85.50;;;;;;5084749;27;21013;-69
2022/10/30 10:09:52;;;;;;;5.90;2.80;;;17.70;85.60;;;;;;5091338;27;20989;-69
2022/10/30 10:12:50;;;;;;;4.00;3.30;;;17.70;85.50;;;;;;5121906;27;20456;-69
2022/10/30 11:06:05;;;;;;;4.10;2.20;;;17.70;85.80;;;;;;5081558;28;20429;-69
2022/10/30 11:08:34;;;;;;;3.50;2.87;;;17.70;85.80;;;;;;5071304;28;20535;-70
2022/10/30 11:11:05;;;;;;;3.23;2.77;;;17.70;85.90;;;;;;5090490;28;20461;-69
2022/10/30 11:13:36;;;;;;;2.77;2.57;;;17.60;85.70;;;;;;5068772;28;20437;-69
2022/10/30 11:16:22;;;;;;;2.93;2.63;;;17.70;85.90;;;;;;5066609;28;20460;-69
2022/10/30 11:18:55;;;;;;;3.67;3.37;;;17.70;87.10;;;;;;5059359;28;20445;-69
2022/10/30 11:21:27;;;;;;;3.33;2.80;;;17.60;85.80;;;;;;5070546;28;20839;-70
2022/10/30 11:23:55;;;;;;;3.10;2.77;;;17.70;86.00;;;;;;5069702;28;20532;-69
2022/10/30 11:26:34;;;;;;;4.43;3.80;;;17.70;86.20;;;;;;5073220;28;20471;-69
2022/10/30 11:29:06;;;;;;;4.30;3.73;;;17.70;86.70;;;;;;5093682;28;20225;-72
2022/10/30 11:31:38;;;;;;;6.00;3.63;;;17.80;86.70;;;;;;5070335;28;20527;-70
2022/10/30 11:34:20;;;;;;;5.60;3.90;;;17.80;86.60;;;;;;5090452;28;20482;-72
2022/10/30 11:36:51;;;;;;;5.33;3.70;;;17.80;86.90;;;;;;5062997;28;20473;-72
2022/10/30 12:27:35;;;;;;;6.83;4.80;;;17.90;90.40;;;;;;5076948;28;20445;-73
2022/10/30 12:30:24;;;;;;;6.90;5.40;;;17.90;90.40;;;;;;5179290;22;20489;-69
2022/10/30 12:33:24;;;;;;;5.97;4.93;;;17.90;90.60;;;;;;5066387;28;20443;-69
2022/10/30 12:36:22;;;;;;;6.77;4.17;;;17.90;90.60;;;;;;5062381;28;20951;-69
2022/10/30 12:39:58;;;;;;;6.03;4.17;;;17.90;90.70;;;;;;4972755;28;20552;-69
2022/10/30 12:49:31;;;;;;;5.40;4.53;;;17.90;90.40;;;;;;5032980;28;20535;-67
2022/10/30 12:52:26;;;;;;;5.63;4.60;;;18.00;90.40;;;;;;5049954;28;20556;-69
2022/10/30 12:55:03;;;;;;;8.40;4.10;;;18.00;90.40;;;;;;5073986;28;20423;-69
2022/10/30 12:57:45;;;;;;;8.80;4.37;;;18.00;90.20;;;;;;5050997;28;20473;-69
2022/10/30 13:00:36;;;;;;;4.23;3.83;;;18.00;90.00;;;;;;5051906;28;20438;-69
2022/10/30 13:03:25;;;;;;;7.83;4.23;;;18.00;90.10;;;;;;5050145;28;20545;-69
2022/10/30 13:05:55;;;;;;;8.10;4.57;;;18.00;90.00;;;;;;5066423;28;20465;-69
2022/10/30 13:08:30;;;;;;;6.77;4.23;;;18.00;90.00;;;;;;5080437;28;21006;-68
2022/10/30 13:11:07;;;;;;;8.47;4.10;;;18.00;90.30;;;;;;5056485;28;20512;-68
2022/10/30 13:13:44;;;;;;;7.77;4.23;;;18.00;89.50;;;;;;5047493;28;20933;-68
2022/10/30 13:16:18;;;;;;;5.33;4.60;;;18.00;89.60;;;;;;5079887;28;20465;-69
2022/10/30 13:18:52;;;;;;;5.50;4.20;;;18.00;89.40;;;;;;5025977;28;20462;-69
2022/10/30 13:21:41;;;;;;;6.70;4.00;;;18.00;88.70;;;;;;5081190;28;20992;-69
2022/10/30 13:27:59;;;;;;;5.43;3.63;;;18.00;85.70;;;;;;5039132;28;20905;-69
2022/10/30 13:31:16;;;;;;;5.43;3.50;;;18.00;83.80;;;;;;5039362;28;20474;-69
2022/10/30 13:37:35;;;;;;;3.20;2.90;;;18.00;81.70;;;;;;5037157;28;20854;-68
2022/10/30 13:40:27;;;;;;;5.83;3.23;;;18.00;80.70;;;;;;5059200;28;20491;-69
2022/10/30 13:43:25;;;;;;;5.43;2.80;;;18.00;79.90;;;;;;5052026;28;20442;-70
2022/10/30 13:46:45;;;;;;;2.73;2.43;;;18.00;79.70;;;;;;5076720;28;20494;-68
2022/10/30 13:49:45;;;;;;;7.00;2.50;;;18.00;78.30;;;;;;5054477;28;20464;-69
2022/10/30 13:55:54;;;;;;;4.23;3.20;;;18.00;77.30;;;;;;5070747;28;20442;-68
2022/10/30 13:59:05;;;;;;;7.20;3.47;;;18.00;78.10;;;;;;5049488;28;20456;-68
2022/10/30 14:01:55;;;;;;;6.53;2.60;;;18.00;76.50;;;;;;5060905;28;20839;-70
2022/10/30 14:04:51;;;;;;;9.07;3.53;;;18.00;76.00;;;;;;5078004;28;20443;-69
2022/10/30 14:07:46;;;;;;;7.80;2.70;;;18.00;74.90;;;;;;5044267;28;20901;-70
2022/10/30 14:11:05;;;;;;;4.10;3.10;;;18.00;75.20;;;;;;5080326;28;20509;-69
2022/10/30 14:14:20;;;;;;;3.60;2.73;;;18.10;74.40;;;;;;5024029;28;20431;-70
2022/10/30 14:17:40;;;;;;;3.10;2.53;;;18.00;72.80;;;;;;5054604;28;20446;-70
2022/10/30 14:24:30;;;;;;;4.40;3.33;;;18.10;72.10;;;;;;5038408;28;20580;-69
2022/10/30 14:27:51;;;;;;;4.50;2.60;;;18.10;72.40;;;;;;4999675;28;20849;-69
2022/10/30 14:30:28;;;;;;;5.10;2.80;;;18.10;71.50;;;;;;5070209;28;20529;-70
2022/10/30 14:33:47;;;;;;;5.20;2.53;;;18.10;71.30;;;;;;5047788;28;20474;-69
2022/10/30 14:36:51;;;;;;;3.83;3.00;;;18.10;71.00;;;;;;5080679;28;20470;-75
2022/10/30 14:39:53;;;;;;;7.50;2.80;;;18.10;70.50;;;;;;5066416;28;20458;-74
2022/10/30 14:45:46;;;;;;;4.80;4.00;;;18.10;69.80;;;;;;5041730;28;20999;-73
2022/10/30 14:52:43;;;;;;;4.20;1.97;;;18.10;69.40;;;;;;5042933;28;20603;-74
2022/10/30 14:55:34;;;;;;;2.30;2.00;;;18.10;69.40;;;;;;5065605;28;20528;-76
2022/10/30 14:58:24;;;;;;;3.53;2.33;;;18.10;69.50;;;;;;5102027;28;20568;-75
2022/10/30 15:01:33;;;;;;;2.87;2.57;;;18.10;69.20;;;;;;5070828;28;21375;-74
2022/10/30 15:04:34;;;;;;;6.10;3.23;;;18.10;69.30;;;;;;5022379;28;20514;-73
2022/10/30 15:07:24;;;;;;;3.20;2.50;;;18.10;69.10;;;;;;5069627;28;20493;-74
2022/10/30 15:10:07;;;;;;;4.70;2.67;;;18.10;69.10;;;;;;5061599;28;20928;-74
2022/10/30 15:16:11;;;;;;;5.73;3.63;;;18.10;69.50;;;;;;5055925;28;20461;-74
2022/10/30 15:19:11;;;;;;;3.90;3.07;;;18.10;69.00;;;;;;5082451;28;20987;-74
2022/10/30 15:21:55;;;;;;;3.13;2.80;;;18.10;69.20;;;;;;5098482;28;20993;-75
2022/10/30 15:24:32;;;;;;;3.83;2.87;;;18.10;69.40;;;;;;5068966;28;20442;-73
2022/10/30 15:27:09;;;;;;;6.77;2.97;;;18.10;69.40;;;;;;5060638;28;20965;-74
2022/10/30 15:29:40;;;;;;;3.60;2.60;;;18.10;69.40;;;;;;5060447;28;20482;-74
2022/10/30 15:32:16;;;;;;;4.17;2.93;;;18.10;69.40;;;;;;5084446;28;20533;-74
2022/10/30 15:34:58;;;;;;;4.63;2.93;;;18.10;69.90;;;;;;5058303;28;20817;-75
2022/10/30 15:37:40;;;;;;;3.27;2.73;;;18.10;69.80;;;;;;5085473;28;20958;-73
2022/10/30 15:40:24;;;;;;;3.90;3.50;;;18.10;69.70;;;;;;5079127;28;20442;-75
2022/10/30 15:46:14;;;;;;;5.70;4.03;;;18.10;70.00;;;;;;5075940;28;20443;-74
2022/10/30 16:02:51;;;;;;;;;;;;;;;;;;;;;
2022/10/30 16:09:04;;;;;;;11.70;5.70;;;18.10;71.00;;;;;;5097666;28;20468;-73
2022/10/30 16:14:45;;;;;;;6.87;5.23;;;18.00;71.20;;;;;;5072644;28;20453;-74
2022/10/30 16:17:32;;;;;;;11.20;6.10;;;18.10;72.10;;;;;;5064041;28;20494;-75
2022/10/30 16:20:37;;;;;;;8.50;6.50;;;18.10;71.90;;;;;;5028631;28;20529;-73
2022/10/30 16:30:56;;;;;;;6.37;5.77;;;18.10;72.60;;;;;;5082972;28;20449;-73
2022/10/30 16:33:36;;;;;;;9.67;5.67;;;18.00;72.90;;;;;;5086045;28;20470;-74
2022/10/30 16:36:15;;;;;;;8.03;5.80;;;18.00;73.10;;;;;;5061484;28;20478;-74